METAR stanice u blizini

 

LYBE - Beograd / Surčin, Srbija
Ažurirano: 13/04/2024 22:00
Vedro
Vedro
 Pravac vetra ZJZ
Vetar: ZJZ 7 km/h
Temperatura: 19°C
Tačka rose: 8°C
Vlažnost: 49%
Pritisak: 1025 hPa
Pregled: Vedro
Vidljivost: greater than 10 km
2024/04/13 20:00 LYBE 132000Z 24004KT CAVOK 19/08 Q1025 NOSIG
LYBT - Beograd / Batajnica, Srbija
Ažurirano: 13/04/2024 22:00
Vedro
Vedro
 Pravac vetra varies
Vetar: varies 2 km/h
Temperatura: 16°C
Tačka rose: 9°C
Vlažnost: 63%
Pritisak: 1025 hPa
Pregled: Vedro
Vidljivost: greater than 10 km
2024/04/13 20:00 LYBT 132000Z VRB01KT CAVOK 16/09 Q1025 NOSIG
LYVR - Vršac, Srbija
Ažurirano: 13/04/2024 22:00
Vedro
Vedro
 Pravac vetra calm
Vetar: Tišina
Temperatura: 12°C
Tačka rose: 9°C
Vlažnost: 82%
Pritisak: 1024 hPa
Pregled: Vedro
Vidljivost: greater than 10 km
2024/04/13 20:00 LYVR 132000Z AUTO 00000KT CAVOK 12/09 Q1024
 
LYKV - Lađevci, Srbija
Ažurirano: 13/04/2024 22:00
Vedro
Vedro
 Pravac vetra varies
Vetar: varies 2 km/h
Temperatura: 12°C
Tačka rose: 7°C
Vlažnost: 72%
Pritisak: 1026 hPa
Pregled: Vedro
Vidljivost: greater than 10 km
2024/04/13 20:00 LYKV 132000Z VRB01KT CAVOK 12/07 Q1026 NOSIG
LYNI - Niš, Srbija
Ažurirano: 13/04/2024 22:00
Vedro
Vedro
 Pravac vetra calm
Vetar: Tišina
Temperatura: 15°C
Tačka rose: 8°C
Vlažnost: 63%
Pritisak: 1026 hPa
Pregled: Vedro
Vidljivost: greater than 10 km
2024/04/13 20:00 LYNI 132000Z 00000KT CAVOK 15/08 Q1026 NOSIG
BKPR - Priština, Srbija
Ažurirano: 13/04/2024 22:00
Vedro
Vedro
 Pravac vetra S
Vetar: S 22 km/h
Temperatura: 17°C
Tačka rose: 8°C
Vlažnost: 56%
Pritisak: 1026 hPa
Pregled: Vedro
Vidljivost: greater than 10 km
2024/04/13 20:00 BKPR 132000Z 36012KT CAVOK 17/08 Q1026 NOSIG
 
LHPP - Pecs / Pogany, Hungary
Ažurirano: 13/04/2024 21:45
Vedro
Vedro
 Pravac vetra varies
Vetar: varies 4 km/h
Temperatura: 16°C
Tačka rose: 9°C
Vlažnost: 63%
Pritisak: 1025 hPa
Pregled: Vedro
Vidljivost: greater than 10 km
2024/04/13 19:45 LHPP 131945Z AUTO VRB02KT CAVOK 16/09 Q1025
LHUD - Szeged, Hungary
Ažurirano: 04/07/2019 01:45
NOT Current
Vedro
Vedro
 Pravac vetra S
Vetar: S 7 km/h
Temperatura: 18°C
Tačka rose: 13°C
Vlažnost: 73%
Pritisak: 1019 hPa
Pregled: Vedro
Vidljivost: greater than 10 km
2019/07/03 23:45 LHUD 032345Z 35004KT CAVOK 18/13 Q1019
LRTR - Timisoara, Romania
Ažurirano: 13/04/2024 22:00
Vedro
Vedro
 Pravac vetra IJI
Vetar: IJI 4 km/h
Temperatura: 13°C
Tačka rose: 9°C
Vlažnost: 77%
Pritisak: 1024 hPa
Pregled: Vedro
Vidljivost: greater than 10 km
2024/04/13 20:00 LRTR 132000Z 11002KT CAVOK 13/09 Q1024
 
LRCV - Craiova, Romania
Ažurirano: 13/04/2024 22:00
Vedro
Vedro
 Pravac vetra Z
Vetar: Z 11 km/h
Temperatura: 17°C
Tačka rose: 7°C
Vlažnost: 52%
Pritisak: 1022 hPa
Pregled: Vedro
Vidljivost: greater than 10 km
2024/04/13 20:00 LRCV 132000Z 28006KT CAVOK 17/07 Q1022
LBSF - Sofia, Bulgaria
Ažurirano: 13/04/2024 22:00
Few Clouds
Few Clouds
 Pravac vetra Z
Vetar: Z 9 km/h
Temperatura: 17°C
Tačka rose: 9°C
Vlažnost: 59%
Pritisak: 1025 hPa
Oblaci: Few Clouds
Vidljivost: 10 km
Cloud details: Few Clouds 1829 m
2024/04/13 20:00 LBSF 132000Z AUTO 28005KT 9999 FEW060/// 17/09 Q1025 NOSIG
LWSK - Skoplje, Makedonija
Ažurirano: 13/04/2024 21:50
Vedro
Vedro
 Pravac vetra SSI
Vetar: SSI 19 km/h
Temperatura: 18°C
Tačka rose: 11°C
Vlažnost: 64%
Pritisak: 1024 hPa
Pregled: Vedro
Vidljivost: greater than 10 km
2024/04/13 19:50 LWSK 131950Z 03010KT CAVOK 18/11 Q1024 NOSIG
 
LYPG - Podgorica, Crna Gora
Ažurirano: 13/04/2024 22:00
Vedro
Vedro
 Pravac vetra S
Vetar: S 7 km/h
Temperatura: 19°C
Tačka rose: 11°C
Vlažnost: 60%
Pritisak: 1023 hPa
Pregled: Vedro
Vidljivost: greater than 10 km
2024/04/13 20:00 LYPG 132000Z 35004KT CAVOK 19/11 Q1023 NOSIG
LQSA - Sarajevo, Bosna i Hercegovina
Ažurirano: 13/04/2024 22:00
Vedro
Vedro
 Pravac vetra JI
Vetar: JI 6 km/h
Temperatura: 13°C
Tačka rose: 8°C
Vlažnost: 72%
Pritisak: 1027 hPa
Pregled: Vedro
Vidljivost: greater than 10 km
2024/04/13 20:00 LQSA 132000Z 14003KT CAVOK 13/08 Q1027 NOSIG
LDOS - Osijek, Hrvatksa
Ažurirano: 13/04/2024 22:00
Vedro
Vedro
 Pravac vetra ZJZ
Vetar: ZJZ 7 km/h
Temperatura: 15°C
Tačka rose: 8°C
Vlažnost: 63%
Pritisak: 1025 hPa
Pregled: Vedro
Vidljivost: greater than 10 km
2024/04/13 20:00 LDOS 132000Z 25004KT CAVOK 15/08 Q1025